Time;durP1;ratioP1;P1;durP2;ratioP2;P2;SDS_P1;SDS_P2;PMS_P1;PMS_P2;Temp;Humidity;BMP_temperature;BMP_pressure;BME280_temperature;BME280_humidity;BME280_pressure;Samples;Min_cycle;Max_cycle;Signal;HPM_P1;HPM_P2
2022/11/22 00:00:27;;;;;;;;;8.75;8.75;;;;;20.75;52.00;98717.66;5017692;28;46142;-61
2022/11/22 00:02:53;;;;;;;;;8.25;7.25;;;;;20.75;51.63;98724.78;5019338;28;45197;-63
2022/11/22 00:05:18;;;;;;;;;10.50;8.25;;;;;20.74;51.93;98717.78;5019540;28;45219;-62
2022/11/22 00:07:44;;;;;;;;;7.50;7.50;;;;;20.73;51.21;98718.72;5017936;28;45275;-64
2022/11/22 00:10:10;;;;;;;;;10.50;7.50;;;;;20.72;51.57;98717.03;5020329;28;52902;-64
2022/11/22 00:12:36;;;;;;;;;9.50;8.00;;;;;20.72;51.73;98717.03;5004717;28;45356;-64
2022/11/22 00:15:01;;;;;;;;;7.25;6.00;;;;;20.72;51.41;98723.19;5022430;28;54383;-64
2022/11/22 00:17:26;;;;;;;;;6.75;6.75;;;;;20.71;51.36;98713.53;5021137;28;50168;-64
2022/11/22 00:19:52;;;;;;;;;6.25;6.25;;;;;20.71;51.49;98724.13;5022221;28;54926;-63
2022/11/22 00:22:17;;;;;;;;;8.00;6.75;;;;;20.71;51.79;98717.97;5022067;28;55238;-63
2022/11/22 00:24:45;;;;;;;;;7.50;6.75;;;;;20.71;51.44;98717.97;5022351;28;51721;-64
2022/11/22 00:27:10;;;;;;;;;7.00;7.00;;;;;20.69;51.39;98712.78;5022466;28;45377;-64
2022/11/22 00:29:36;;;;;;;;;8.75;6.75;;;;;20.69;51.68;98710.13;5022333;28;45291;-65
2022/11/22 00:32:01;;;;;;;;;6.75;6.00;;;;;20.68;51.75;98708.44;5021996;28;53491;-64
2022/11/22 00:34:26;;;;;;;;;6.00;6.00;;;;;20.69;51.74;98706.63;5021903;28;55996;-64
2022/11/22 00:36:52;;;;;;;;;7.50;7.00;;;;;20.66;51.54;98702.34;5020352;28;67866;-64
2022/11/22 00:39:17;;;;;;;;;7.00;6.00;;;;;20.66;51.52;98705.00;5022457;28;45133;-63
2022/11/22 00:41:42;;;;;;;;;8.25;7.00;;;;;20.65;51.39;98698.00;5021532;28;63732;-63
2022/11/22 00:44:08;;;;;;;;;6.00;6.00;;;;;20.66;51.34;98712.97;5022109;28;52262;-63
2022/11/22 00:46:33;;;;;;;;;5.00;5.00;;;;;20.65;51.65;98708.63;5020895;28;45307;-63
2022/11/22 00:48:59;;;;;;;;;5.00;5.00;;;;;20.66;51.31;98704.16;5020071;28;63438;-64
2022/11/22 00:51:24;;;;;;;;;5.00;5.00;;;;;20.66;51.52;98709.47;5020905;28;70519;-64
2022/11/22 00:53:49;;;;;;;;;6.25;5.00;;;;;20.65;51.46;98698.00;5004402;28;45605;-64
2022/11/22 00:56:15;;;;;;;;;8.25;4.75;;;;;20.64;51.35;98706.06;5004112;28;45508;-64
2022/11/22 00:58:40;;;;;;;;;6.50;5.50;;;;;20.63;51.18;98705.22;5021566;28;71278;-63
2022/11/22 01:01:06;;;;;;;;;6.50;5.00;;;;;20.64;51.50;98714.03;5020629;28;45356;-64
2022/11/22 01:03:31;;;;;;;;;7.75;7.75;;;;;20.63;51.71;98714.97;5021229;28;63479;-64
2022/11/22 01:05:57;;;;;;;;;6.00;5.50;;;;;20.62;51.59;98711.47;5021360;28;70163;-64
2022/11/22 01:08:22;;;;;;;;;7.00;5.25;;;;;20.61;51.19;98717.72;5021152;28;67618;-65
2022/11/22 01:10:47;;;;;;;;;6.25;4.50;;;;;20.64;51.28;98721.97;5003097;28;70159;-64
2022/11/22 01:13:13;;;;;;;;;9.50;6.75;;;;;20.63;51.18;98720.28;5020211;28;56356;-64
2022/11/22 01:15:38;;;;;;;;;8.00;6.75;;;;;20.63;51.18;98710.53;5021593;28;45282;-63
2022/11/22 01:18:04;;;;;;;;;6.25;5.25;;;;;20.62;51.40;98706.19;5020805;28;66522;-64
2022/11/22 01:20:29;;;;;;;;;5.00;5.00;;;;;20.63;51.07;98707.03;5021983;28;45315;-65
2022/11/22 01:22:55;;;;;;;;;5.50;4.00;;;;;20.63;51.30;98714.97;5021733;28;45294;-65
2022/11/22 01:25:21;;;;;;;;;7.00;5.75;;;;;20.62;51.54;98710.63;5021651;28;49409;-64
2022/11/22 01:27:46;;;;;;;;;6.25;6.00;;;;;20.63;51.44;98704.38;5021450;28;53968;-65
2022/11/22 01:30:12;;;;;;;;;7.50;7.50;;;;;20.63;51.10;98714.97;5021258;28;45443;-64
2022/11/22 01:32:37;;;;;;;;;5.75;4.00;;;;;20.62;51.05;98706.19;5020660;28;45489;-64
2022/11/22 01:35:03;;;;;;;;;7.00;5.50;;;;;20.62;51.05;98700.88;5019271;28;71548;-64
2022/11/22 01:37:28;;;;;;;;;7.25;5.75;;;;;20.63;51.34;98705.22;5021348;28;47590;-64
2022/11/22 01:39:53;;;;;;;;;7.75;5.00;;;;;20.63;51.54;98699.91;5020469;28;71077;-64
2022/11/22 01:42:19;;;;;;;;;6.00;5.25;;;;;20.62;51.25;98700.88;5019379;28;61448;-63
2022/11/22 01:44:45;;;;;;;;;5.50;3.50;;;;;20.62;51.34;98700.88;5020728;28;52967;-64
2022/11/22 01:47:12;;;;;;;;;5.25;4.25;;;;;20.63;51.39;98702.56;5019151;28;67485;-65
2022/11/22 01:49:46;;;;;;;;;6.25;4.50;;;;;20.63;50.91;98705.22;5003197;28;45415;-65
2022/11/22 01:52:16;;;;;;;;;6.50;4.00;;;;;20.62;51.59;98705.31;5008995;28;45256;-63
2022/11/22 01:54:43;;;;;;;;;4.25;4.00;;;;;20.62;51.51;98700.03;5019732;28;45495;-64
2022/11/22 01:57:14;;;;;;;;;4.50;4.50;;;;;20.60;51.28;98700.13;5003524;28;46312;-64
2022/11/22 01:59:43;;;;;;;;;6.50;4.00;;;;;20.59;51.15;98699.28;5019645;28;45393;-63
2022/11/22 02:02:08;;;;;;;;;6.75;4.00;;;;;20.59;51.43;98703.72;5003563;28;45337;-63
2022/11/22 02:04:34;;;;;;;;;4.75;3.50;;;;;20.58;51.05;98705.50;5002744;28;62716;-65
2022/11/22 02:07:24;;;;;;;;;5.75;5.00;;;;;20.59;50.91;98701.09;5020096;28;69281;-64
2022/11/22 02:09:50;;;;;;;;;3.25;3.00;;;;;20.59;51.03;98706.38;5020589;28;45297;-62
2022/11/22 02:12:16;;;;;;;;;8.00;5.00;;;;;20.58;50.87;98702.00;5019645;28;45488;-65
2022/11/22 02:14:41;;;;;;;;;5.25;5.00;;;;;20.58;50.85;98705.50;5019334;28;45265;-65
2022/11/22 02:17:06;;;;;;;;;4.00;4.00;;;;;20.58;51.09;98694.06;5002202;28;70372;-64
2022/11/22 02:19:38;;;;;;;;;3.25;2.75;;;;;20.57;50.93;98687.06;5019743;28;71622;-63
2022/11/22 02:22:24;;;;;;;;;9.00;4.75;;;;;20.56;51.17;98677.41;5020827;28;45451;-64
2022/11/22 02:25:01;;;;;;;;;6.00;5.00;;;;;20.56;50.98;98677.41;5020843;28;45420;-64
2022/11/22 02:27:26;;;;;;;;;5.00;5.00;;;;;20.55;50.94;98663.31;5019319;28;47064;-64
2022/11/22 02:29:52;;;;;;;;;5.00;3.25;;;;;20.55;50.68;98673.91;5019777;28;61018;-65
2022/11/22 02:32:17;;;;;;;;;5.00;4.25;;;;;20.54;50.84;98679.31;5020571;28;45674;-65
2022/11/22 02:34:47;;;;;;;;;4.00;3.00;;;;;20.54;50.60;98658.97;5001211;28;56530;-65
2022/11/22 02:37:14;;;;;;;;;5.50;4.50;;;;;20.53;51.05;98661.72;5002496;28;47234;-64
2022/11/22 02:39:40;;;;;;;;;6.25;5.25;;;;;20.53;50.87;98662.56;5019631;28;45493;-65
2022/11/22 02:42:05;;;;;;;;;4.75;4.00;;;;;20.55;50.60;98659.81;5019238;28;45742;-64
2022/11/22 02:44:30;;;;;;;;;2.75;2.75;;;;;20.54;50.79;98658.97;5018649;28;59096;-65
2022/11/22 02:46:56;;;;;;;;;4.00;4.00;;;;;20.54;50.39;98658.09;4985524;28;63169;-64
2022/11/22 02:49:23;;;;;;;;;4.50;4.00;;;;;20.53;50.95;98651.13;5020126;28;58755;-66
2022/11/22 02:51:49;;;;;;;;;8.25;4.50;;;;;20.54;50.75;98653.66;5020372;28;45331;-65
2022/11/22 02:54:14;;;;;;;;;5.00;5.00;;;;;20.52;50.70;98652.91;5020407;28;45294;-65
2022/11/22 02:56:39;;;;;;;;;4.50;4.00;;;;;20.51;50.32;98643.28;5021232;28;45882;-64
2022/11/22 02:59:05;;;;;;;;;6.50;5.00;;;;;20.52;50.40;98638.81;5002656;28;45251;-65
2022/11/22 03:01:30;;;;;;;;;4.50;4.50;;;;;20.50;50.56;98638.91;5002281;28;47853;-64
2022/11/22 03:03:56;;;;;;;;;4.00;3.25;;;;;20.49;50.75;98631.91;5018864;28;45454;-65
2022/11/22 03:06:21;;;;;;;;;5.50;5.50;;;;;20.48;50.55;98640.78;5019397;28;66222;-65
2022/11/22 03:08:47;;;;;;;;;4.25;4.00;;;;;20.48;50.56;98643.44;5019178;28;65915;-64
2022/11/22 03:11:13;;;;;;;;;4.00;4.00;;;;;20.48;50.47;98639.94;5020124;28;45389;-63
2022/11/22 03:13:38;;;;;;;;;5.25;5.25;;;;;20.48;50.63;98637.31;5020184;28;45481;-65
2022/11/22 03:16:04;;;;;;;;;5.50;4.00;;;;;20.48;50.39;98632.00;5019062;28;64770;-65
2022/11/22 03:18:31;;;;;;;;;4.75;3.75;;;;;20.46;50.47;98625.97;5019101;28;65390;-64
2022/11/22 03:21:04;;;;;;;;;4.00;4.00;;;;;20.46;50.72;98628.59;5018935;28;45256;-64
2022/11/22 03:23:29;;;;;;;;;6.50;4.25;;;;;20.46;50.38;98626.81;5020008;28;45453;-64
2022/11/22 03:25:55;;;;;;;;;6.50;5.50;;;;;20.45;50.45;98622.47;5019718;28;46245;-64
2022/11/22 03:28:20;;;;;;;;;7.00;5.50;;;;;20.45;50.67;98625.09;5017862;28;71056;-65
2022/11/22 03:30:45;;;;;;;;;6.00;4.25;;;;;20.46;50.22;98639.22;5018960;28;58180;-65
2022/11/22 03:33:11;;;;;;;;;4.50;3.75;;;;;20.45;50.22;98621.63;5019598;28;48182;-64
2022/11/22 03:35:36;;;;;;;;;7.50;4.00;;;;;20.45;50.29;98622.47;5019112;28;62686;-64
2022/11/22 03:38:02;;;;;;;;;5.00;4.00;;;;;20.45;50.14;98629.56;5017927;28;65526;-65
2022/11/22 03:40:27;;;;;;;;;6.00;5.50;;;;;20.44;50.29;98634.00;5018720;28;45349;-65
2022/11/22 03:42:52;;;;;;;;;7.75;5.00;;;;;20.42;50.04;98630.59;5017943;28;65009;-65
2022/11/22 03:45:18;;;;;;;;;7.75;6.50;;;;;20.43;50.55;98636.72;5020227;28;65802;-66
2022/11/22 03:47:43;;;;;;;;;5.00;4.25;;;;;20.43;50.30;98628.78;5022454;28;58949;-63
2022/11/22 03:50:08;;;;;;;;;9.00;6.00;;;;;20.44;50.16;98628.72;5021994;28;69504;-64
2022/11/22 03:52:34;;;;;;;;;6.75;5.25;;;;;20.46;50.02;98633.91;5021416;28;57708;-64
2022/11/22 03:54:59;;;;;;;;;6.25;5.00;;;;;20.45;50.41;98637.50;5021627;28;62250;-64
2022/11/22 03:57:25;;;;;;;;;5.00;5.00;;;;;20.43;50.21;98634.97;5023131;28;45421;-63
2022/11/22 03:59:50;;;;;;;;;4.00;4.00;;;;;20.43;50.44;98626.13;5021436;28;55513;-64
2022/11/22 04:02:16;;;;;;;;;5.25;5.25;;;;;20.42;50.23;98627.94;5022695;28;47203;-65
2022/11/22 04:04:41;;;;;;;;;7.50;6.00;;;;;20.41;50.11;98634.16;5022711;28;46990;-64
2022/11/22 04:07:06;;;;;;;;;6.00;6.00;;;;;20.42;50.18;98627.94;5020900;28;63082;-63
2022/11/22 04:09:32;;;;;;;;;7.00;5.75;;;;;20.42;50.31;98621.78;5021384;28;45376;-63
2022/11/22 04:11:57;;;;;;;;;8.25;5.00;;;;;20.41;49.86;98623.56;5022531;28;45397;-63
2022/11/22 04:17:06;;;;;;;;;6.50;5.50;;;;;20.43;50.13;98628.78;5022990;28;45348;-64
2022/11/22 04:19:32;;;;;;;;;5.00;4.75;;;;;20.44;50.38;98627.88;5020337;28;69456;-64
2022/11/22 04:21:57;;;;;;;;;7.25;6.00;;;;;20.42;50.31;98620.00;5021899;28;68889;-64
2022/11/22 04:27:07;;;;;;;;;8.50;6.25;;;;;20.43;50.23;98607.59;5022550;28;45375;-64
2022/11/22 04:29:32;;;;;;;;;5.50;5.25;;;;;20.43;50.33;98612.88;5021847;28;61085;-65
2022/11/22 04:34:41;;;;;;;;;7.75;5.75;;;;;20.42;50.39;98605.91;5022273;28;45367;-64
2022/11/22 04:37:07;;;;;;;;;5.25;5.00;;;;;20.42;50.46;98590.00;5021619;28;61459;-64
2022/11/22 04:39:32;;;;;;;;;9.25;6.00;;;;;20.40;50.47;98587.41;5021632;28;64034;-63
2022/11/22 04:44:42;;;;;;;;;6.00;5.00;;;;;20.41;50.30;98583.81;5021975;28;45358;-64
2022/11/22 04:49:58;;;;;;;;;7.75;7.75;;;;;20.43;50.43;98591.69;5022192;28;45268;-64
2022/11/22 04:55:08;;;;;;;;;8.75;5.75;;;;;20.41;50.41;98604.16;5022125;28;45320;-64
2022/11/22 04:57:33;;;;;;;;;6.50;5.50;;;;;20.41;50.48;98604.16;5020653;28;57868;-63
2022/11/22 04:59:58;;;;;;;;;7.50;5.75;;;;;20.40;50.42;98597.16;5020520;28;45307;-64
2022/11/22 05:02:24;;;;;;;;;6.25;5.25;;;;;20.40;50.25;98600.66;5021523;28;55304;-64
2022/11/22 05:04:49;;;;;;;;;6.00;5.00;;;;;20.41;50.37;98599.72;5020532;28;46530;-62
2022/11/22 05:07:15;;;;;;;;;7.25;6.00;;;;;20.41;50.36;98598.88;5021624;28;52911;-62
2022/11/22 05:09:40;;;;;;;;;6.50;4.00;;;;;20.41;50.62;98591.75;5004207;28;45269;-62
2022/11/22 05:12:06;;;;;;;;;6.00;4.75;;;;;20.42;50.47;98590.00;5020481;28;45413;-62
2022/11/22 05:14:31;;;;;;;;;6.25;6.25;;;;;20.43;50.33;98602.28;5019173;28;69866;-62
2022/11/22 05:16:56;;;;;;;;;5.00;5.00;;;;;20.43;50.34;98589.91;5019716;28;69784;-62
2022/11/22 05:19:22;;;;;;;;;5.75;5.00;;;;;20.44;50.66;98590.78;5020304;28;45276;-62
2022/11/22 05:21:47;;;;;;;;;6.00;5.00;;;;;20.45;50.55;98597.75;4987202;28;52910;-61
2022/11/22 05:24:13;;;;;;;;;5.50;5.50;;;;;20.45;50.41;98581.88;5003131;28;58543;-61
2022/11/22 05:26:38;;;;;;;;;5.75;5.25;;;;;20.46;50.35;98583.56;5021487;28;46919;-61
2022/11/22 05:29:08;;;;;;;;;6.50;5.50;;;;;20.45;50.45;98582.72;5021225;28;45560;-62
2022/11/22 05:31:34;;;;;;;;;5.75;5.75;;;;;20.47;50.69;98587.91;5021474;28;45492;-62
2022/11/22 05:33:59;;;;;;;;;6.25;5.25;;;;;20.46;50.66;98592.34;5020035;28;46126;-61
2022/11/22 05:36:25;;;;;;;;;5.25;3.75;;;;;20.48;50.47;98589.59;5021386;28;45241;-63
2022/11/22 05:38:50;;;;;;;;;6.00;5.50;;;;;20.49;51.03;98592.16;5020393;28;45777;-62
2022/11/22 05:41:15;;;;;;;;;5.00;4.00;;;;;20.49;50.72;98591.28;5020121;28;45454;-63
2022/11/22 05:43:41;;;;;;;;;5.00;5.00;;;;;20.50;51.13;98588.56;5020472;28;70202;-62
2022/11/22 05:46:11;;;;;;;;;5.00;5.00;;;;;20.51;51.23;98590.28;5019806;28;45385;-63
2022/11/22 05:48:38;;;;;;;;;3.00;3.00;;;;;20.53;51.06;98590.16;5021186;28;45244;-62
2022/11/22 05:51:04;;;;;;;;;8.50;6.25;;;;;20.54;51.12;98605.09;5019817;28;45561;-62
2022/11/22 05:53:30;;;;;;;;;7.00;5.75;;;;;20.55;51.31;98604.16;5019860;28;46137;-62
2022/11/22 05:55:55;;;;;;;;;5.75;5.00;;;;;20.56;51.33;98608.50;5019562;28;56673;-62
2022/11/22 05:58:20;;;;;;;;;6.00;4.25;;;;;20.57;50.99;98607.53;5021045;28;45275;-62
2022/11/22 06:00:46;;;;;;;;;3.75;3.75;;;;;20.58;50.86;98609.25;5019838;28;71163;-62
2022/11/22 06:03:11;;;;;;;;;5.00;5.00;;;;;20.58;50.98;98610.09;5020283;28;59244;-62
2022/11/22 06:05:37;;;;;;;;;5.25;4.75;;;;;20.59;51.22;98600.38;5020131;28;70673;-62
2022/11/22 06:08:02;;;;;;;;;5.75;4.25;;;;;20.60;51.08;98599.41;5019805;28;66761;-62
2022/11/22 06:10:27;;;;;;;;;4.75;4.25;;;;;20.61;51.09;98590.50;5019015;28;45292;-62
2022/11/22 06:12:53;;;;;;;;;5.50;5.00;;;;;20.61;51.03;98595.81;5020217;28;58188;-62
2022/11/22 06:15:18;;;;;;;;;6.00;6.00;;;;;20.61;51.26;98579.91;5020219;28;53727;-62
2022/11/22 06:17:44;;;;;;;;;6.75;5.00;;;;;20.63;51.36;98593.06;5003097;28;45338;-62
2022/11/22 06:20:09;;;;;;;;;7.50;5.00;;;;;20.64;51.35;98585.00;5019877;28;65135;-62
2022/11/22 06:22:35;;;;;;;;;4.00;4.00;;;;;20.63;51.00;98588.59;5019284;28;45884;-62
2022/11/22 06:25:00;;;;;;;;;4.50;4.50;;;;;20.64;51.32;98590.28;5019019;28;66668;-61
2022/11/22 06:27:25;;;;;;;;;5.25;4.50;;;;;20.65;51.16;98593.78;5017535;28;63648;-61
2022/11/22 06:29:51;;;;;;;;;3.75;3.50;;;;;20.65;51.04;98589.34;5018955;28;74191;-62
2022/11/22 06:32:16;;;;;;;;;3.75;3.75;;;;;20.66;51.02;98595.50;5019387;28;73258;-62
2022/11/22 06:34:42;;;;;;;;;7.75;4.50;;;;;20.67;51.44;98600.69;5018796;28;45372;-62
2022/11/22 06:37:07;;;;;;;;;6.00;6.00;;;;;20.67;51.52;98605.13;5020585;28;45250;-62
2022/11/22 06:39:32;;;;;;;;;5.25;5.00;;;;;20.68;51.09;98607.72;5018526;28;64539;-62
2022/11/22 06:41:58;;;;;;;;;6.75;4.75;;;;;20.69;51.20;98609.41;5017828;28;46901;-61
2022/11/22 06:44:23;;;;;;;;;5.25;3.25;;;;;20.69;51.30;98612.06;5018756;28;45305;-61
2022/11/22 06:46:49;;;;;;;;;6.00;5.00;;;;;20.70;51.56;98600.50;5019998;28;49147;-61
2022/11/22 06:49:14;;;;;;;;;4.00;3.75;;;;;20.72;50.92;98613.66;5017904;28;45731;-61
2022/11/22 06:51:39;;;;;;;;;3.25;3.25;;;;;20.71;51.08;98610.16;5017757;28;72867;-62
2022/11/22 06:54:05;;;;;;;;;3.75;3.75;;;;;20.72;51.57;98603.03;5015350;28;48987;-61
2022/11/22 06:56:33;;;;;;;;;3.25;3.25;;;;;20.73;51.19;98607.38;5001154;28;51691;-63
2022/11/22 06:59:00;;;;;;;;;6.25;4.00;;;;;20.74;51.12;98615.22;5016924;28;45382;-62
2022/11/22 07:01:27;;;;;;;;;3.00;3.00;;;;;20.74;51.06;98617.88;5019903;28;45337;-62
2022/11/22 07:03:56;;;;;;;;;5.00;3.75;;;;;20.74;50.91;98623.19;5017235;28;45330;-63
2022/11/22 07:06:22;;;;;;;;;5.25;3.75;;;;;20.73;50.94;98621.50;5019848;28;45390;-62
2022/11/22 07:08:48;;;;;;;;;6.25;4.25;;;;;20.73;50.68;98615.34;5018241;28;45519;-62
2022/11/22 07:11:24;;;;;;;;;5.50;4.25;;;;;20.74;51.13;98631.16;4985176;28;47823;-62
2022/11/22 07:13:49;;;;;;;;;5.75;3.00;;;;;20.75;51.10;98630.19;5018347;28;46036;-62
2022/11/22 07:16:16;;;;;;;;;4.00;3.50;;;;;20.76;50.89;98625.72;5020206;28;45429;-62
2022/11/22 07:18:41;;;;;;;;;4.25;3.00;;;;;20.76;51.05;98631.91;5019543;28;45287;-61
2022/11/22 07:21:11;;;;;;;;;3.50;3.00;;;;;20.77;50.85;98627.47;5022384;28;46103;-62
2022/11/22 07:23:37;;;;;;;;;4.50;3.00;;;;;20.77;50.75;98630.09;5022106;28;45387;-62
2022/11/22 07:26:03;;;;;;;;;3.50;3.50;;;;;20.77;50.77;98638.91;5023517;28;45504;-62
2022/11/22 07:28:28;;;;;;;;;5.75;4.75;;;;;20.77;51.38;98640.72;5022154;28;45353;-62
2022/11/22 07:30:58;;;;;;;;;3.25;2.25;;;;;20.77;51.16;98644.22;5022535;28;56260;-62
2022/11/22 07:33:23;;;;;;;;;2.75;2.75;;;;;20.77;50.73;98646.03;5021940;28;46688;-62
2022/11/22 07:35:49;;;;;;;;;5.00;4.00;;;;;20.78;50.85;98653.03;5020218;28;55039;-62
2022/11/22 07:38:14;;;;;;;;;3.00;3.00;;;;;20.76;51.04;98663.72;5023156;28;45280;-62
2022/11/22 07:40:40;;;;;;;;;7.50;5.00;;;;;20.75;50.76;98667.31;5021527;28;49405;-62
2022/11/22 07:43:05;;;;;;;;;3.25;2.50;;;;;20.75;50.53;98658.50;5002967;28;45681;-62
2022/11/22 07:45:30;;;;;;;;;3.75;2.50;;;;;20.74;50.39;98664.75;5019102;28;51056;-62
2022/11/22 07:47:58;;;;;;;;;5.50;3.75;;;;;20.74;50.41;98662.94;5018941;28;55573;-61
2022/11/22 07:50:24;;;;;;;;;3.00;3.00;;;;;20.73;50.61;98653.31;5020374;28;45343;-60
2022/11/22 07:52:56;;;;;;;;;4.25;4.25;;;;;20.75;50.27;98658.50;5021650;28;45397;-60
2022/11/22 07:55:24;;;;;;;;;2.25;2.25;;;;;20.75;50.39;98650.53;5021744;28;45347;-59
2022/11/22 07:57:49;;;;;;;;;3.00;3.00;;;;;20.75;50.38;98667.31;5021244;28;45402;-61
2022/11/22 08:00:15;;;;;;;;;4.00;3.00;;;;;20.75;50.22;98662.00;5021983;28;46000;-61
2022/11/22 08:02:40;;;;;;;;;4.75;3.00;;;;;20.75;49.77;98664.66;5020560;28;45342;-60
2022/11/22 08:05:07;;;;;;;;;4.00;2.00;;;;;20.75;49.92;98662.00;5021287;28;66828;-60
2022/11/22 08:07:32;;;;;;;;;3.00;2.75;;;;;20.74;49.79;98660.31;5022842;28;45170;-60
2022/11/22 08:09:57;;;;;;;;;2.25;2.00;;;;;20.72;49.83;98667.50;5020688;28;72117;-61
2022/11/22 08:12:23;;;;;;;;;3.00;3.00;;;;;20.72;49.74;98671.97;5002886;28;71167;-61
2022/11/22 08:14:48;;;;;;;;;5.25;2.75;;;;;20.70;49.93;98666.78;5018982;28;57555;-60
2022/11/22 08:17:14;;;;;;;;;2.00;1.00;;;;;20.71;49.45;98672.91;5019187;28;65527;-57
2022/11/22 08:19:39;;;;;;;;;5.00;2.00;;;;;20.71;49.63;98670.28;5021279;28;46950;-59
2022/11/22 08:22:04;;;;;;;;;1.75;1.75;;;;;20.73;49.71;98678.97;5020302;28;45442;-59
2022/11/22 08:24:30;;;;;;;;;2.75;2.50;;;;;20.73;49.77;98682.47;5022927;28;53163;-59
2022/11/22 08:26:56;;;;;;;;;3.00;2.00;;;;;20.72;49.68;98688.72;5004946;28;45293;-60
2022/11/22 08:29:27;;;;;;;;;2.00;2.00;;;;;20.72;49.56;98680.78;5029973;28;45312;-60
2022/11/22 08:31:54;;;;;;;;;3.00;3.00;;;;;20.73;49.55;98685.13;5028714;28;44709;-59
2022/11/22 08:34:19;;;;;;;;;4.00;3.00;;;;;20.75;49.56;98679.72;5004627;28;45324;-60
2022/11/22 08:36:45;;;;;;;;;3.25;3.00;;;;;20.74;49.76;98676.22;5026148;28;58121;-59
2022/11/22 08:39:10;;;;;;;;;5.00;3.00;;;;;20.76;49.66;98689.34;5020485;28;46112;-63
2022/11/22 08:41:35;;;;;;;;;4.00;2.00;;;;;20.76;49.77;98690.25;5022420;28;46510;-59
2022/11/22 08:44:01;;;;;;;;;2.00;1.00;;;;;20.76;49.62;98684.94;5021084;28;57949;-60
2022/11/22 08:46:26;;;;;;;;;3.50;3.25;;;;;20.76;49.52;98695.53;5021844;28;45516;-60
2022/11/22 08:48:53;;;;;;;;;2.25;2.25;;;;;20.77;49.60;98697.25;5020296;28;52220;-60
2022/11/22 08:51:18;;;;;;;;;3.25;3.25;;;;;20.78;49.73;98704.22;5020383;28;45360;-60
2022/11/22 08:53:43;;;;;;;;;3.75;2.50;;;;;20.80;49.49;98696.19;5023737;28;60461;-59
2022/11/22 08:56:13;;;;;;;;;4.75;3.00;;;;;20.79;49.63;98699.78;5022069;28;45345;-61
2022/11/22 08:58:38;;;;;;;;;2.00;2.00;;;;;20.79;49.59;98689.19;5016466;28;45258;-62
2022/11/22 09:01:12;;;;;;;;;2.00;2.00;;;;;20.81;49.82;98700.53;5021492;28;45232;-60
2022/11/22 09:03:37;;;;;;;;;2.25;2.25;;;;;20.82;49.65;98702.22;5020751;28;45217;-61
2022/11/22 09:06:04;;;;;;;;;8.25;3.25;;;;;20.82;49.76;98703.06;5022414;28;45276;-60
2022/11/22 09:08:30;;;;;;;;;5.50;4.25;;;;;20.83;49.77;98712.72;5021355;28;46591;-60
2022/11/22 09:11:02;;;;;;;;;4.00;4.00;;;;;20.86;49.45;98706.38;5023136;28;45291;-59
2022/11/22 09:13:28;;;;;;;;;5.00;3.00;;;;;20.86;49.60;98712.53;5022784;28;45237;-61
2022/11/22 09:15:54;;;;;;;;;7.00;5.00;;;;;20.87;49.58;98708.94;5023595;28;45308;-60
2022/11/22 09:18:20;;;;;;;;;3.75;2.50;;;;;20.86;49.59;98701.94;5024199;28;45311;-59
2022/11/22 09:20:46;;;;;;;;;3.50;3.25;;;;;20.88;49.54;98713.28;5029616;28;45221;-61
2022/11/22 09:23:12;;;;;;;;;4.50;3.50;;;;;20.87;49.48;98711.59;5013073;28;45399;-61
2022/11/22 09:25:37;;;;;;;;;4.00;2.25;;;;;20.88;49.57;98715.94;5012693;28;45339;-60
2022/11/22 09:28:03;;;;;;;;;5.75;3.00;;;;;20.88;49.39;98710.63;5020380;28;74786;-61
2022/11/22 09:30:29;;;;;;;;;5.25;4.00;;;;;20.91;49.68;98719.34;5020049;28;72155;-60
2022/11/22 09:32:54;;;;;;;;;3.75;3.00;;;;;20.92;49.43;98731.63;5021489;28;45355;-61
2022/11/22 09:35:20;;;;;;;;;6.25;3.50;;;;;20.93;49.13;98722.72;5019312;28;64013;-61
2022/11/22 09:37:45;;;;;;;;;3.75;2.50;;;;;20.94;49.41;98716.47;5020864;28;60029;-61
2022/11/22 09:40:13;;;;;;;;;4.75;4.00;;;;;20.95;49.42;98721.69;5024848;28;45319;-60
2022/11/22 09:43:01;;;;;;;;;4.50;4.00;;;;;20.96;49.33;98725.19;5005791;28;45305;-61
2022/11/22 09:45:41;;;;;;;;;4.00;3.50;;;;;20.96;49.54;98727.84;5019262;28;45507;-61
2022/11/22 09:48:21;;;;;;;;;5.50;4.00;;;;;20.96;49.16;98728.69;5019894;28;46276;-61
2022/11/22 09:51:08;;;;;;;;;3.00;3.00;;;;;20.96;49.40;98722.53;5019524;28;45500;-61
2022/11/22 09:53:44;;;;;;;;;3.00;3.00;;;;;20.98;48.91;98728.59;5003406;28;45326;-61
2022/11/22 09:56:14;;;;;;;;;4.00;3.00;;;;;21.00;49.46;98721.38;5003082;28;45269;-60
2022/11/22 09:58:50;;;;;;;;;6.00;3.00;;;;;20.99;48.86;98723.19;5006918;28;45276;-60
2022/11/22 10:01:39;;;;;;;;;3.00;2.00;;;;;21.02;49.17;98730.06;5002748;28;45272;-60
2022/11/22 10:04:19;;;;;;;;;5.00;3.00;;;;;21.02;49.37;98740.69;5020492;28;45411;-59
2022/11/22 10:06:49;;;;;;;;;3.50;2.75;;;;;21.02;49.29;98730.94;5019752;28;45517;-59
2022/11/22 10:09:32;;;;;;;;;3.25;3.00;;;;;21.03;49.14;98730.00;5019364;28;46242;-60
2022/11/22 10:12:05;;;;;;;;;2.00;2.00;;;;;21.02;49.22;98741.53;5020439;28;45357;-60
2022/11/22 10:14:58;;;;;;;;;2.50;2.25;;;;;21.04;48.92;98736.16;5003021;28;45367;-60
2022/11/22 10:17:42;;;;;;;;;3.00;2.00;;;;;21.03;49.06;98748.56;5020141;28;45391;-61
2022/11/22 10:20:20;;;;;;;;;4.00;2.25;;;;;21.05;49.11;98736.06;5020540;28;45542;-61
2022/11/22 10:22:46;;;;;;;;;3.00;3.00;;;;;21.06;48.94;98743.06;5020033;28;45383;-60
2022/11/22 10:25:40;;;;;;;;;5.00;4.00;;;;;21.09;48.99;98760.56;5002787;28;45323;-60
2022/11/22 10:28:27;;;;;;;;;4.75;2.25;;;;;21.10;48.78;98747.19;5010071;28;45264;-61
2022/11/22 10:31:04;;;;;;;;;2.00;2.00;;;;;21.13;49.13;98741.72;5003681;28;45364;-61
2022/11/22 10:34:02;;;;;;;;;2.75;2.75;;;;;21.15;49.04;98746.91;5020377;28;45334;-60
2022/11/22 10:36:34;;;;;;;;;3.25;2.75;;;;;21.15;48.94;98750.41;5020565;28;45765;-60
2022/11/22 10:39:12;;;;;;;;;2.25;2.25;;;;;21.16;48.65;98752.09;5019402;28;45878;-60
2022/11/22 10:41:43;;;;;;;;;2.00;2.00;;;;;21.18;48.94;98744.03;5020435;28;45307;-60
2022/11/22 10:44:11;;;;;;;;;4.00;2.50;;;;;21.19;48.99;98753.69;5022465;28;45497;-62
2022/11/22 10:46:36;;;;;;;;;3.25;2.00;;;;;21.21;48.55;98753.63;5019844;28;45370;-60
2022/11/22 10:49:09;;;;;;;;;5.25;3.00;;;;;21.21;48.94;98756.28;5023685;28;45290;-60
2022/11/22 10:51:58;;;;;;;;;3.00;3.00;;;;;21.21;48.62;98758.94;5030827;28;46075;-61
2022/11/22 10:54:26;;;;;;;;;3.25;2.00;;;;;21.19;48.41;98756.34;5007296;28;45631;-62
2022/11/22 10:57:02;;;;;;;;;4.50;3.25;;;;;21.21;48.55;98765.09;5018605;28;45433;-62
2022/11/22 11:00:05;;;;;;;;;4.00;4.00;;;;;21.21;48.67;98778.34;5018513;28;45331;-62
2022/11/22 11:02:55;;;;;;;;;3.00;2.25;;;;;21.20;48.94;98779.31;5029230;28;47254;-63
2022/11/22 11:05:29;;;;;;;;;3.00;2.50;;;;;21.20;48.71;98770.47;5019709;28;45342;-64
2022/11/22 11:07:54;;;;;;;;;1.75;1.75;;;;;21.18;49.19;98774.06;5020965;28;45473;-63
2022/11/22 11:10:21;;;;;;;;;3.00;1.25;;;;;21.18;49.09;98767.91;5005397;28;45482;-63
2022/11/22 11:12:51;;;;;;;;;3.25;2.75;;;;;21.18;49.12;98770.56;5006000;28;46944;-62
2022/11/22 11:15:17;;;;;;;;;3.75;2.50;;;;;21.18;49.22;98781.19;5020644;28;45430;-63
2022/11/22 11:17:42;;;;;;;;;2.00;2.00;;;;;21.17;49.33;98779.47;5020772;28;45362;-63
2022/11/22 11:20:30;;;;;;;;;3.00;2.75;;;;;21.15;49.09;98761.00;5025099;28;45489;-64
2022/11/22 11:22:56;;;;;;;;;3.50;3.25;;;;;21.16;49.47;98775.13;5002278;28;45478;-63
2022/11/22 11:25:42;;;;;;;;;2.25;2.25;;;;;21.15;49.61;98776.94;5029563;28;45210;-62
2022/11/22 11:28:18;;;;;;;;;5.00;3.00;;;;;21.15;49.89;98771.63;4996351;28;45213;-60
2022/11/22 11:30:49;;;;;;;;;1.75;1.50;;;;;21.15;49.27;98784.03;4993745;28;45223;-63
2022/11/22 11:33:25;;;;;;;;;2.25;1.00;;;;;21.15;49.74;98790.19;5025840;28;45325;-62
2022/11/22 11:35:53;;;;;;;;;3.00;3.00;;;;;21.15;49.48;98778.72;5018756;28;45334;-63
2022/11/22 11:38:45;;;;;;;;;3.25;3.00;;;;;21.14;49.33;98775.22;5019743;28;45433;-63
2022/11/22 11:41:37;;;;;;;;;2.00;2.00;;;;;21.15;49.85;98776.09;5018834;28;45320;-63
2022/11/22 11:44:03;;;;;;;;;6.50;3.00;;;;;21.15;49.69;98773.44;5019088;28;67770;-62
2022/11/22 11:46:45;;;;;;;;;1.00;0.00;;;;;21.16;49.96;98772.47;5008860;28;45362;-62
2022/11/22 11:49:22;;;;;;;;;6.50;3.25;;;;;21.15;49.79;98776.09;4990895;28;45273;-64
2022/11/22 11:52:03;;;;;;;;;1.75;1.25;;;;;21.16;50.17;98775.13;5015852;28;45496;-63
2022/11/22 11:54:37;;;;;;;;;6.00;3.75;;;;;21.15;49.78;98771.63;5018522;28;47377;-64